createdAt,value
2023-03-26T00:01:30.262Z,100527.91
2023-03-26T00:04:21.936Z,100530.63
2023-03-26T00:07:10.559Z,100538.81
2023-03-26T00:09:58.094Z,100539.38
2023-03-26T00:12:44.449Z,100542.53
2023-03-26T00:15:31.039Z,100534.44
2023-03-26T00:18:20.011Z,100526.69
2023-03-26T00:21:07.998Z,100523.22
2023-03-26T00:23:56.347Z,100517.03
2023-03-26T00:26:42.541Z,100511.13
2023-03-26T00:29:28.810Z,100504.59
2023-03-26T00:32:15.305Z,100501.50
2023-03-26T00:35:02.459Z,100496.59
2023-03-26T00:37:51.422Z,100494.25
2023-03-26T00:40:44.078Z,100482.63
2023-03-26T00:43:32.869Z,100488.31
2023-03-26T00:46:19.586Z,100487.63
2023-03-26T00:49:10.854Z,100486.84
2023-03-26T00:51:58.183Z,100492.03
2023-03-26T00:54:44.319Z,100498.66
2023-03-26T00:57:35.901Z,100495.41
2023-03-26T01:00:31.667Z,100496.41
2023-03-26T01:03:27.860Z,100490.81
2023-03-26T01:06:20.863Z,100487.66
2023-03-26T01:09:15.775Z,100481.41
2023-03-26T01:12:03.494Z,100474.72
2023-03-26T01:14:52.969Z,100480.75
2023-03-26T01:17:39.579Z,100477.88
2023-03-26T01:20:30.427Z,100482.31
2023-03-26T01:23:36.445Z,100478.41
2023-03-26T01:26:40.577Z,100465.53
2023-03-26T01:29:33.546Z,100470.56
2023-03-26T01:32:28.441Z,100462.97
2023-03-26T01:35:25.977Z,100457.44
2023-03-26T01:38:28.663Z,100453.13
2023-03-26T01:41:20.705Z,100450.16
2023-03-26T01:44:16.116Z,100441.78
2023-03-26T01:47:03.035Z,100438.44
2023-03-26T01:49:49.567Z,100435.47
2023-03-26T01:52:36.202Z,100440.94
2023-03-26T01:55:26.957Z,100431.50
2023-03-26T01:58:24.984Z,100429.31
2023-03-26T02:01:27.147Z,100421.66
2023-03-26T02:04:23.120Z,100421.31
2023-03-26T02:07:17.888Z,100408.06
2023-03-26T02:10:10.357Z,100416.06
2023-03-26T02:12:59.927Z,100409.50
2023-03-26T02:15:57.077Z,100405.16
2023-03-26T02:18:45.810Z,100395.59
2023-03-26T02:21:34.007Z,100389.03
2023-03-26T02:24:20.912Z,100390.31
2023-03-26T02:27:12.219Z,100381.22
2023-03-26T02:29:59.825Z,100390.31
2023-03-26T02:32:46.205Z,100377.94
2023-03-26T02:35:34.363Z,100370.47
2023-03-26T02:38:25.266Z,100362.91
2023-03-26T02:41:12.206Z,100362.81
2023-03-26T02:44:15.702Z,100363.91
2023-03-26T02:47:17.002Z,100354.13
2023-03-26T02:50:12.534Z,100357.22
2023-03-26T02:53:18.277Z,100358.84
2023-03-26T02:56:10.978Z,100348.66
2023-03-26T02:59:04.475Z,100343.81
2023-03-26T03:01:50.641Z,100339.31
2023-03-26T03:04:38.702Z,100335.78
2023-03-26T03:07:25.085Z,100331.44
2023-03-26T03:10:13.979Z,100322.25
2023-03-26T03:13:18.928Z,100327.88
2023-03-26T03:16:06.101Z,100324.69
2023-03-26T03:18:57.452Z,100327.75
2023-03-26T03:21:46.586Z,100324.38
2023-03-26T03:24:33.993Z,100317.88
2023-03-26T03:27:23.811Z,100323.44
2023-03-26T03:30:17.437Z,100317.44
2023-03-26T03:33:07.179Z,100317.56
2023-03-26T03:35:54.113Z,100313.66
2023-03-26T03:38:42.100Z,100298.38
2023-03-26T03:41:30.835Z,100299.00
2023-03-26T03:44:20.436Z,100293.81
2023-03-26T03:47:07.560Z,100291.81
2023-03-26T03:49:53.924Z,100289.41
2023-03-26T03:52:40.800Z,100280.75
2023-03-26T03:55:28.000Z,100278.97
2023-03-26T03:58:14.711Z,100274.69
2023-03-26T04:01:04.223Z,100268.47
2023-03-26T04:04:06.502Z,100263.09
2023-03-26T04:07:15.576Z,100271.16
2023-03-26T04:10:25.093Z,100263.56
2023-03-26T04:13:30.416Z,100259.41
2023-03-26T04:16:35.636Z,100255.41
2023-03-26T04:19:22.600Z,100246.81
2023-03-26T04:22:09.441Z,100248.94
2023-03-26T04:25:02.747Z,100233.63
2023-03-26T04:28:11.859Z,100223.63
2023-03-26T04:31:30.494Z,100222.19
2023-03-26T04:34:25.142Z,100214.78
2023-03-26T04:37:27.475Z,100214.50
2023-03-26T04:40:39.032Z,100206.72
2023-03-26T04:43:47.430Z,100204.09
2023-03-26T04:46:55.247Z,100198.81
2023-03-26T04:49:54.312Z,100191.84
2023-03-26T04:52:43.280Z,100179.84
2023-03-26T04:55:54.824Z,100188.00
2023-03-26T04:59:02.515Z,100185.00
2023-03-26T05:01:52.685Z,100178.03
2023-03-26T05:04:40.802Z,100179.75
2023-03-26T05:07:29.436Z,100174.19
2023-03-26T05:10:20.259Z,100173.56
2023-03-26T05:13:17.872Z,100168.66
2023-03-26T05:16:09.853Z,100170.31
2023-03-26T05:18:59.493Z,100159.50
2023-03-26T05:21:52.025Z,100159.69
2023-03-26T05:24:39.648Z,100161.00
2023-03-26T05:27:26.484Z,100154.81
2023-03-26T05:30:15.687Z,100150.31
2023-03-26T05:33:05.553Z,100146.19
2023-03-26T05:36:02.112Z,100145.28
2023-03-26T05:38:52.215Z,100139.19
2023-03-26T05:42:00.650Z,100127.28
2023-03-26T05:44:56.562Z,100131.03
2023-03-26T05:47:47.843Z,100140.84
2023-03-26T05:50:36.479Z,100128.84
2023-03-26T05:53:25.002Z,100139.22
2023-03-26T05:56:30.238Z,100137.72
2023-03-26T05:59:49.791Z,100137.75
2023-03-26T06:02:56.613Z,100137.03
2023-03-26T06:05:46.524Z,100135.41
2023-03-26T06:08:39.302Z,100132.34
2023-03-26T06:11:25.627Z,100123.56
2023-03-26T06:14:12.024Z,100121.97
2023-03-26T06:17:05.447Z,100125.63
2023-03-26T06:20:13.331Z,100124.28
2023-03-26T06:23:02.625Z,100121.78
2023-03-26T06:26:18.102Z,100121.25
2023-03-26T06:29:15.824Z,100120.06
2023-03-26T06:32:19.803Z,100117.16
2023-03-26T06:35:11.637Z,100116.31
2023-03-26T06:37:58.048Z,100118.22
2023-03-26T06:40:44.703Z,100112.59
2023-03-26T06:43:51.133Z,100117.47
2023-03-26T06:46:56.471Z,100107.97
2023-03-26T06:50:08.100Z,100112.13
2023-03-26T06:52:59.445Z,100105.03
2023-03-26T06:56:03.158Z,100109.25
2023-03-26T06:59:07.108Z,100100.47
2023-03-26T07:02:12.461Z,100109.72
2023-03-26T07:05:23.231Z,100107.56
2023-03-26T07:08:39.137Z,100106.97
2023-03-26T07:11:56.461Z,100105.09
2023-03-26T07:14:46.931Z,100109.00
2023-03-26T07:17:48.286Z,100109.53
2023-03-26T07:20:45.484Z,100097.31
2023-03-26T07:23:32.035Z,100094.69
2023-03-26T07:26:50.797Z,100096.22
2023-03-26T07:29:46.585Z,100086.72
2023-03-26T07:32:59.995Z,100085.59
2023-03-26T07:36:20.978Z,100088.41
2023-03-26T07:39:41.666Z,100074.19
2023-03-26T07:42:58.711Z,100070.38
2023-03-26T07:46:04.469Z,100073.50
2023-03-26T07:49:06.369Z,100070.41
2023-03-26T07:52:13.536Z,100060.69
2023-03-26T07:55:23.163Z,100054.28
2023-03-26T07:58:44.550Z,100058.66
2023-03-26T08:02:02.982Z,100052.03
2023-03-26T08:05:19.668Z,100053.13
2023-03-26T08:08:31.468Z,100053.13
2023-03-26T08:11:48.232Z,100061.69
2023-03-26T08:14:49.647Z,100050.63
2023-03-26T08:17:40.547Z,100046.78
2023-03-26T08:20:36.877Z,100046.53
2023-03-26T08:23:32.574Z,100050.56
2023-03-26T08:26:30.604Z,100056.47
2023-03-26T08:29:24.696Z,100056.16
2023-03-26T08:32:17.270Z,100047.41
2023-03-26T08:35:05.160Z,100054.84
2023-03-26T08:37:52.424Z,100047.94
2023-03-26T08:41:19.312Z,100052.50
2023-03-26T08:44:47.639Z,100046.41
2023-03-26T08:48:11.517Z,100050.00
2023-03-26T08:51:21.251Z,100055.19
2023-03-26T08:54:31.514Z,100047.13
2023-03-26T08:57:46.128Z,100052.03
2023-03-26T09:00:42.573Z,100050.50
2023-03-26T09:03:52.513Z,100059.75
2023-03-26T09:07:10.030Z,100061.22
2023-03-26T09:10:34.012Z,100062.84
2023-03-26T09:14:09.155Z,100063.50
2023-03-26T09:17:26.133Z,100072.22
2023-03-26T09:21:15.393Z,100070.28
2023-03-26T09:24:47.206Z,100065.72
2023-03-26T09:27:40.215Z,100068.41
2023-03-26T09:30:57.228Z,100067.16
2023-03-26T09:33:59.899Z,100067.47
2023-03-26T09:36:57.300Z,100069.78
2023-03-26T09:39:57.355Z,100070.75
2023-03-26T09:42:46.394Z,100068.25
2023-03-26T09:45:47.696Z,100077.13
2023-03-26T09:49:06.746Z,100080.22
2023-03-26T09:52:23.167Z,100072.53
2023-03-26T09:55:34.677Z,100076.66
2023-03-26T09:58:43.090Z,100084.19
2023-03-26T10:01:40.589Z,100091.75
2023-03-26T10:04:45.936Z,100097.56
2023-03-26T10:08:14.445Z,100101.34
2023-03-26T10:11:07.674Z,100091.22
2023-03-26T10:14:04.761Z,100099.34
2023-03-26T10:17:01.425Z,100101.00
2023-03-26T10:19:59.325Z,100104.13
2023-03-26T10:22:55.250Z,100098.94
2023-03-26T10:26:00.028Z,100104.31
2023-03-26T10:29:07.901Z,100109.31
2023-03-26T10:32:07.707Z,100108.56
2023-03-26T10:35:08.084Z,100117.81
2023-03-26T10:38:01.690Z,100114.28
2023-03-26T10:40:59.589Z,100124.38
2023-03-26T10:44:07.850Z,100123.66
2023-03-26T10:47:18.652Z,100118.75
2023-03-26T10:50:23.004Z,100118.22
2023-03-26T10:53:19.744Z,100119.31
2023-03-26T10:56:18.719Z,100130.66
2023-03-26T10:59:08.258Z,100121.72
2023-03-26T11:02:05.872Z,100120.84
2023-03-26T11:05:00.461Z,100120.91
2023-03-26T11:07:53.786Z,100130.91
2023-03-26T11:10:54.469Z,100131.41
2023-03-26T11:13:54.628Z,100130.25
2023-03-26T11:16:54.512Z,100127.63
2023-03-26T11:19:50.105Z,100136.34
2023-03-26T11:22:51.315Z,100142.44
2023-03-26T11:25:51.996Z,100130.31
2023-03-26T11:29:31.508Z,100136.09
2023-03-26T11:32:18.970Z,100147.72
2023-03-26T11:35:15.926Z,100141.13
2023-03-26T11:38:06.821Z,100146.66
2023-03-26T11:40:56.182Z,100151.16
2023-03-26T11:44:22.216Z,100159.06
2023-03-26T11:47:12.867Z,100160.78
2023-03-26T11:50:03.136Z,100160.53
2023-03-26T11:52:49.409Z,100155.69
2023-03-26T11:55:37.507Z,100167.66
2023-03-26T11:58:30.991Z,100168.97
2023-03-26T12:01:30.466Z,100169.72
2023-03-26T12:04:18.950Z,100163.81
2023-03-26T12:07:10.765Z,100172.34
2023-03-26T12:10:18.746Z,100173.06
2023-03-26T12:13:27.565Z,100172.66
2023-03-26T12:16:16.630Z,100167.75
2023-03-26T12:19:08.186Z,100175.88
2023-03-26T12:21:54.739Z,100176.59
2023-03-26T12:24:41.265Z,100177.81
2023-03-26T12:27:30.734Z,100181.63
2023-03-26T12:30:23.713Z,100186.56
2023-03-26T12:33:18.349Z,100184.19
2023-03-26T12:36:23.276Z,100192.66
2023-03-26T12:40:09.449Z,100187.72
2023-03-26T12:44:48.417Z,100199.94
2023-03-26T12:46:58.905Z,100203.25
2023-03-26T12:49:05.451Z,100196.78
2023-03-26T12:51:56.691Z,100194.72
2023-03-26T12:54:51.486Z,100199.94
2023-03-26T12:57:44.396Z,100205.94
2023-03-26T13:00:50.006Z,100202.84
2023-03-26T13:03:44.676Z,100201.56
2023-03-26T13:06:59.098Z,100199.72
2023-03-26T13:10:25.074Z,100205.06
2023-03-26T13:13:35.427Z,100201.34
2023-03-26T13:16:31.001Z,100205.13
2023-03-26T13:19:22.051Z,100208.38
2023-03-26T13:22:21.374Z,100206.78
2023-03-26T13:25:22.289Z,100208.63
2023-03-26T13:28:21.429Z,100212.94
2023-03-26T13:31:17.423Z,100213.34
2023-03-26T13:34:16.065Z,100215.50
2023-03-26T13:37:13.922Z,100216.78
2023-03-26T13:40:13.551Z,100221.72
2023-03-26T13:43:14.926Z,100215.66
2023-03-26T13:46:12.198Z,100229.94
2023-03-26T13:49:01.304Z,100241.94
2023-03-26T13:51:55.436Z,100245.78
2023-03-26T13:54:48.057Z,100252.16
2023-03-26T13:57:39.353Z,100252.94
2023-03-26T14:00:32.668Z,100259.09
2023-03-26T14:03:25.170Z,100263.56
2023-03-26T14:06:35.443Z,100259.31
2023-03-26T14:09:28.531Z,100266.22
2023-03-26T14:12:29.993Z,100268.19
2023-03-26T14:15:20.527Z,100275.31
2023-03-26T14:18:23.368Z,100278.66
2023-03-26T14:21:29.697Z,100291.59
2023-03-26T14:24:34.380Z,100285.59
2023-03-26T14:27:41.980Z,100287.03
2023-03-26T14:30:59.754Z,100296.41
2023-03-26T14:34:07.108Z,100313.72
2023-03-26T14:37:29.490Z,100319.19
2023-03-26T14:40:31.185Z,100319.13
2023-03-26T14:43:41.919Z,100337.00
2023-03-26T14:46:41.213Z,100333.09
2023-03-26T14:49:54.576Z,100343.44
2023-03-26T14:52:49.276Z,100345.63
2023-03-26T14:56:12.029Z,100358.44
2023-03-26T14:59:50.016Z,100365.69
2023-03-26T15:03:25.891Z,100370.84
2023-03-26T15:06:50.632Z,100377.63
2023-03-26T15:10:11.023Z,100398.06
2023-03-26T15:13:33.878Z,100400.41
2023-03-26T15:16:46.276Z,100401.06
2023-03-26T15:19:54.016Z,100408.41
2023-03-26T15:23:10.449Z,100416.44
2023-03-26T15:26:29.004Z,100423.91
2023-03-26T15:29:41.080Z,100431.53
2023-03-26T15:33:06.273Z,100432.16
2023-03-26T15:36:38.181Z,100439.94
2023-03-26T15:39:44.406Z,100455.16
2023-03-26T15:42:56.046Z,100457.16
2023-03-26T15:45:46.016Z,100467.47
2023-03-26T15:49:00.683Z,100471.00
2023-03-26T15:51:55.395Z,100482.97
2023-03-26T15:54:54.250Z,100504.25
2023-03-26T15:57:46.916Z,100515.13
2023-03-26T16:00:36.832Z,100517.06
2023-03-26T16:03:31.933Z,100523.81
2023-03-26T16:06:31.829Z,100544.44
2023-03-26T16:09:32.402Z,100561.28
2023-03-26T16:12:32.974Z,100564.28
2023-03-26T16:15:29.569Z,100555.03
2023-03-26T16:18:32.427Z,100576.91
2023-03-26T16:21:44.505Z,100577.88
2023-03-26T16:24:34.553Z,100585.59
2023-03-26T16:27:33.365Z,100590.72
2023-03-26T16:30:30.585Z,100601.59
2023-03-26T16:33:21.120Z,100594.88
2023-03-26T16:36:25.927Z,100612.34
2023-03-26T16:39:22.056Z,100629.38
2023-03-26T16:42:31.282Z,100639.16
2023-03-26T16:45:28.445Z,100639.38
2023-03-26T16:48:24.644Z,100654.41
2023-03-26T16:51:17.211Z,100650.84
2023-03-26T16:54:12.944Z,100666.16
2023-03-26T16:57:07.766Z,100672.66
2023-03-26T17:00:31.311Z,100683.63
2023-03-26T17:03:28.343Z,100679.44
2023-03-26T17:06:26.196Z,100679.75
2023-03-26T17:09:24.710Z,100701.63
2023-03-26T17:12:19.743Z,100705.91
2023-03-26T17:15:20.596Z,100711.38
2023-03-26T17:18:29.323Z,100728.38
2023-03-26T17:21:20.626Z,100730.91
2023-03-26T17:24:15.519Z,100739.03
2023-03-26T17:27:26.539Z,100735.47
2023-03-26T17:30:36.893Z,100751.50
2023-03-26T17:33:29.460Z,100753.16
2023-03-26T17:36:29.261Z,100768.31
2023-03-26T17:39:22.311Z,100775.09
2023-03-26T17:42:19.827Z,100772.41
2023-03-26T17:45:17.510Z,100783.16
2023-03-26T17:48:11.096Z,100789.22
2023-03-26T17:51:02.507Z,100797.13
2023-03-26T17:53:52.859Z,100797.16
2023-03-26T17:56:41.725Z,100808.91
2023-03-26T17:59:28.456Z,100817.19
2023-03-26T18:02:17.824Z,100819.53
2023-03-26T18:05:09.408Z,100834.03
2023-03-26T18:08:14.340Z,100824.41
2023-03-26T18:11:29.741Z,100837.41
2023-03-26T18:14:37.470Z,100851.38
2023-03-26T18:17:25.464Z,100861.44
2023-03-26T18:20:23.227Z,100865.66
2023-03-26T18:23:12.079Z,100871.50
2023-03-26T18:26:00.442Z,100872.66
2023-03-26T18:28:52.886Z,100887.47
2023-03-26T18:31:42.261Z,100894.81
2023-03-26T18:34:31.841Z,100900.16
2023-03-26T18:37:20.974Z,100903.84
2023-03-26T18:40:12.042Z,100911.81
2023-03-26T18:43:01.796Z,100914.81
2023-03-26T18:45:53.368Z,100923.44
2023-03-26T18:48:42.518Z,100937.28
2023-03-26T18:51:30.708Z,100943.66
2023-03-26T18:54:21.008Z,100952.19
2023-03-26T18:57:15.804Z,100955.91
2023-03-26T19:00:30.366Z,100960.38
2023-03-26T19:03:21.898Z,100964.16
2023-03-26T19:06:10.432Z,100969.53
2023-03-26T19:08:58.564Z,100970.97
2023-03-26T19:11:45.364Z,100962.69
2023-03-26T19:14:36.612Z,100963.59
2023-03-26T19:17:26.270Z,100982.91
2023-03-26T19:20:19.474Z,100983.84
2023-03-26T19:23:08.951Z,100987.78
2023-03-26T19:25:57.177Z,100996.84
2023-03-26T19:28:49.250Z,101003.03
2023-03-26T19:31:38.674Z,101013.84
2023-03-26T19:34:32.025Z,101019.06
2023-03-26T19:37:22.745Z,101027.69
2023-03-26T19:40:18.603Z,101028.22
2023-03-26T19:43:05.598Z,101037.91
2023-03-26T19:46:00.128Z,101046.25
2023-03-26T19:48:48.955Z,101049.59
2023-03-26T19:51:37.238Z,101054.47
2023-03-26T19:54:25.181Z,101061.25
2023-03-26T19:57:11.477Z,101059.25
2023-03-26T19:59:58.359Z,101067.09
2023-03-26T20:02:46.399Z,101065.59
2023-03-26T20:05:35.642Z,101069.97
2023-03-26T20:08:26.660Z,101078.28
2023-03-26T20:11:21.481Z,101081.72
2023-03-26T20:14:13.811Z,101089.78
2023-03-26T20:17:01.396Z,101089.53
2023-03-26T20:19:47.948Z,101094.59
2023-03-26T20:22:34.168Z,101097.19
2023-03-26T20:25:24.835Z,101109.66
2023-03-26T20:28:14.116Z,101113.03
2023-03-26T20:31:01.021Z,101110.47
2023-03-26T20:33:47.936Z,101114.56
2023-03-26T20:36:35.689Z,101117.16
2023-03-26T20:39:24.080Z,101128.00
2023-03-26T20:42:12.460Z,101129.84
2023-03-26T20:45:01.193Z,101133.84
2023-03-26T20:47:49.558Z,101142.66
2023-03-26T20:50:38.684Z,101148.13
2023-03-26T20:53:31.427Z,101146.38
2023-03-26T20:56:19.997Z,101159.03
2023-03-26T20:59:11.207Z,101158.91
2023-03-26T21:02:00.126Z,101157.94
2023-03-26T21:04:48.072Z,101163.59
2023-03-26T21:07:34.648Z,101177.22
2023-03-26T21:10:22.521Z,101181.06
2023-03-26T21:13:14.694Z,101182.28
2023-03-26T21:16:01.316Z,101180.91
2023-03-26T21:18:49.603Z,101189.44
2023-03-26T21:21:50.594Z,101188.84
2023-03-26T21:24:45.270Z,101188.28
2023-03-26T21:27:39.184Z,101184.34
2023-03-26T21:30:26.500Z,101197.09
2023-03-26T21:33:13.808Z,101196.50
2023-03-26T21:36:02.065Z,101199.94
2023-03-26T21:38:50.461Z,101203.78
2023-03-26T21:41:45.904Z,101221.84
2023-03-26T21:44:32.691Z,101216.47
2023-03-26T21:47:19.299Z,101230.22
2023-03-26T21:50:07.631Z,101229.66
2023-03-26T21:52:56.593Z,101233.59
2023-03-26T21:55:53.686Z,101242.66
2023-03-26T21:58:46.882Z,101238.84
2023-03-26T22:01:42.682Z,101248.59
2023-03-26T22:04:36.635Z,101247.44
2023-03-26T22:07:28.346Z,101262.25
2023-03-26T22:10:16.262Z,101275.00
2023-03-26T22:13:05.712Z,101283.19
2023-03-26T22:15:52.245Z,101296.19
2023-03-26T22:18:38.782Z,101299.03
2023-03-26T22:21:25.179Z,101311.63
2023-03-26T22:24:11.500Z,101306.56
2023-03-26T22:26:59.451Z,101289.88
2023-03-26T22:29:46.439Z,101272.19
2023-03-26T22:32:34.799Z,101262.19
2023-03-26T22:35:21.738Z,101253.00
2023-03-26T22:38:09.712Z,101255.81
2023-03-26T22:40:57.248Z,101253.53
2023-03-26T22:43:46.186Z,101250.03
2023-03-26T22:46:32.807Z,101255.94
2023-03-26T22:49:19.608Z,101257.78
2023-03-26T22:52:06.036Z,101266.28
2023-03-26T22:54:52.957Z,101267.38
2023-03-26T22:57:39.878Z,101269.22
2023-03-26T23:00:27.870Z,101274.19
2023-03-26T23:03:15.229Z,101286.34
2023-03-26T23:06:03.895Z,101283.22
2023-03-26T23:08:51.279Z,101293.09
2023-03-26T23:11:37.301Z,101287.75
2023-03-26T23:14:24.113Z,101293.09
2023-03-26T23:17:14.568Z,101296.66
2023-03-26T23:20:01.807Z,101294.38
2023-03-26T23:22:48.221Z,101292.81
2023-03-26T23:25:35.044Z,101295.94
2023-03-26T23:28:23.852Z,101303.28
2023-03-26T23:31:13.334Z,101309.34
2023-03-26T23:34:01.253Z,101317.66
2023-03-26T23:36:48.043Z,101328.34
2023-03-26T23:39:34.475Z,101326.09
2023-03-26T23:42:29.049Z,101332.56
2023-03-26T23:45:16.432Z,101331.16
2023-03-26T23:48:03.341Z,101329.31
2023-03-26T23:50:52.720Z,101333.66
2023-03-26T23:53:50.126Z,101346.03
2023-03-26T23:56:36.606Z,101350.88
2023-03-26T23:59:23.106Z,101362.56
